createdAt,value
2022-11-30T00:02:30.313Z,100921.59
2022-11-30T00:05:17.981Z,100917.78
2022-11-30T00:08:05.510Z,100913.16
2022-11-30T00:10:52.935Z,100918.59
2022-11-30T00:13:40.700Z,100919.13
2022-11-30T00:16:28.212Z,100922.13
2022-11-30T00:19:15.742Z,100929.72
2022-11-30T00:22:03.338Z,100920.38
2022-11-30T00:24:50.780Z,100929.72
2022-11-30T00:27:38.290Z,100928.56
2022-11-30T00:30:25.743Z,100932.72
2022-11-30T00:33:13.277Z,100928.91
2022-11-30T00:36:05.728Z,100929.41
2022-11-30T00:38:53.356Z,100928.34
2022-11-30T00:41:40.790Z,100932.69
2022-11-30T00:44:28.154Z,100932.38
2022-11-30T00:47:15.669Z,100925.88
2022-11-30T00:50:04.327Z,100932.44
2022-11-30T00:52:51.756Z,100923.44
2022-11-30T00:55:39.272Z,100924.50
2022-11-30T00:58:26.781Z,100922.84
2022-11-30T01:01:14.556Z,100925.66
2022-11-30T01:04:02.226Z,100925.38
2022-11-30T01:06:49.769Z,100920.44
2022-11-30T01:09:37.297Z,100922.56
2022-11-30T01:12:24.862Z,100926.06
2022-11-30T01:15:12.354Z,100922.16
2022-11-30T01:18:00.356Z,100923.84
2022-11-30T01:20:47.801Z,100931.41
2022-11-30T01:23:35.380Z,100929.88
2022-11-30T01:26:23.537Z,100931.03
2022-11-30T01:29:11.014Z,100922.00
2022-11-30T01:31:58.426Z,100927.72
2022-11-30T01:34:46.254Z,100927.75
2022-11-30T01:37:34.054Z,100932.91
2022-11-30T01:40:21.564Z,100927.22
2022-11-30T01:43:13.130Z,100931.34
2022-11-30T01:46:01.927Z,100927.28
2022-11-30T01:48:53.940Z,100933.75
2022-11-30T01:51:44.902Z,100928.91
2022-11-30T01:54:39.178Z,100931.03
2022-11-30T01:57:37.426Z,100930.16
2022-11-30T02:00:24.929Z,100931.84
2022-11-30T02:03:18.719Z,100932.91
2022-11-30T02:06:06.342Z,100931.50
2022-11-30T02:08:54.251Z,100926.63
2022-11-30T02:11:41.678Z,100930.75
2022-11-30T02:14:35.232Z,100924.97
2022-11-30T02:17:42.590Z,100922.75
2022-11-30T02:20:30.025Z,100927.22
2022-11-30T02:23:29.715Z,100922.81
2022-11-30T02:26:26.472Z,100917.59
2022-11-30T02:29:29.727Z,100914.31
2022-11-30T02:32:39.967Z,100918.44
2022-11-30T02:35:29.466Z,100915.22
2022-11-30T02:38:22.771Z,100918.63
2022-11-30T02:41:10.215Z,100911.88
2022-11-30T02:44:01.271Z,100913.50
2022-11-30T02:47:07.357Z,100913.53
2022-11-30T02:49:55.512Z,100920.06
2022-11-30T02:52:43.107Z,100920.53
2022-11-30T02:55:32.180Z,100918.09
2022-11-30T02:58:19.750Z,100918.88
2022-11-30T03:01:07.211Z,100922.22
2022-11-30T03:03:54.770Z,100921.03
2022-11-30T03:06:42.262Z,100917.25
2022-11-30T03:09:29.734Z,100919.19
2022-11-30T03:12:17.168Z,100925.19
2022-11-30T03:15:05.173Z,100924.38
2022-11-30T03:17:52.834Z,100914.56
2022-11-30T03:20:41.673Z,100917.81
2022-11-30T03:23:30.364Z,100916.47
2022-11-30T03:26:17.987Z,100923.84
2022-11-30T03:29:05.530Z,100926.56
2022-11-30T03:31:53.098Z,100924.97
2022-11-30T03:34:40.670Z,100929.81
2022-11-30T03:37:28.278Z,100926.56
2022-11-30T03:40:15.917Z,100922.66
2022-11-30T03:43:03.517Z,100929.19
2022-11-30T03:45:51.054Z,100921.91
2022-11-30T03:48:39.229Z,100918.38
2022-11-30T03:51:26.716Z,100924.28
2022-11-30T03:54:14.209Z,100922.03
2022-11-30T03:57:01.813Z,100925.38
2022-11-30T03:59:49.343Z,100918.88
2022-11-30T04:02:41.519Z,100933.63
2022-11-30T04:05:32.444Z,100928.13
2022-11-30T04:08:19.927Z,100927.00
2022-11-30T04:11:08.023Z,100929.41
2022-11-30T04:13:55.517Z,100934.06
2022-11-30T04:16:43.035Z,100938.41
2022-11-30T04:19:30.564Z,100945.22
2022-11-30T04:22:18.051Z,100940.03
2022-11-30T04:25:05.849Z,100948.97
2022-11-30T04:27:53.347Z,100937.25
2022-11-30T04:30:41.089Z,100935.63
2022-11-30T04:33:28.943Z,100936.94
2022-11-30T04:36:18.907Z,100942.19
2022-11-30T04:39:06.450Z,100943.47
2022-11-30T04:41:54.018Z,100937.78
2022-11-30T04:44:41.504Z,100946.78
2022-11-30T04:47:29.087Z,100954.16
2022-11-30T04:50:16.539Z,100960.28
2022-11-30T04:53:04.125Z,100960.13
2022-11-30T04:55:51.606Z,100958.44
2022-11-30T04:58:39.598Z,100958.09
2022-11-30T05:01:27.152Z,100958.66
2022-11-30T05:04:14.811Z,100955.19
2022-11-30T05:07:02.375Z,100957.25
2022-11-30T05:09:57.725Z,100962.69
2022-11-30T05:12:47.753Z,100959.66
2022-11-30T05:15:40.075Z,100963.72
2022-11-30T05:18:27.716Z,100968.94
2022-11-30T05:21:15.768Z,100974.63
2022-11-30T05:24:03.366Z,100969.75
2022-11-30T05:26:50.856Z,100970.56
2022-11-30T05:29:38.457Z,100977.84
2022-11-30T05:32:25.976Z,100976.22
2022-11-30T05:35:13.514Z,100983.25
2022-11-30T05:38:01.058Z,100979.97
2022-11-30T05:40:48.505Z,100976.16
2022-11-30T05:43:36.150Z,100982.69
2022-11-30T05:46:23.743Z,100985.66
2022-11-30T05:49:11.363Z,100990.25
2022-11-30T05:51:58.849Z,100987.50
2022-11-30T05:54:46.528Z,100991.91
2022-11-30T05:57:38.015Z,100992.97
2022-11-30T06:00:25.548Z,100994.03
2022-11-30T06:03:13.111Z,100990.22
2022-11-30T06:06:00.645Z,100985.84
2022-11-30T06:08:48.968Z,100994.78
2022-11-30T06:11:36.393Z,100995.38
2022-11-30T06:14:23.816Z,101000.00
2022-11-30T06:17:11.287Z,100990.63
2022-11-30T06:19:58.960Z,100994.44
2022-11-30T06:22:46.992Z,100994.63
2022-11-30T06:25:34.950Z,100990.19
2022-11-30T06:28:22.485Z,100995.44
2022-11-30T06:31:11.355Z,101002.19
2022-11-30T06:33:59.153Z,101004.63
2022-11-30T06:36:46.831Z,101010.41
2022-11-30T06:40:04.091Z,101012.34
2022-11-30T06:42:41.731Z,101008.69
2022-11-30T06:45:29.261Z,101009.44
2022-11-30T06:48:16.818Z,101016.84
2022-11-30T06:51:07.869Z,101012.69
2022-11-30T06:53:55.409Z,101013.00
2022-11-30T06:56:42.902Z,101028.81
2022-11-30T06:59:30.717Z,101020.81
2022-11-30T07:02:18.821Z,101024.97
2022-11-30T07:05:06.644Z,101021.94
2022-11-30T07:07:54.143Z,101020.28
2022-11-30T07:10:42.496Z,101023.56
2022-11-30T07:13:30.302Z,101025.72
2022-11-30T07:16:17.849Z,101020.91
2022-11-30T07:19:05.344Z,101032.56
2022-11-30T07:21:52.941Z,101032.00
2022-11-30T07:24:58.616Z,101034.50
2022-11-30T07:27:46.117Z,101030.66
2022-11-30T07:30:33.560Z,101032.88
2022-11-30T07:33:21.112Z,101035.03
2022-11-30T07:36:09.183Z,101035.59
2022-11-30T07:38:56.650Z,101048.63
2022-11-30T07:41:44.189Z,101044.59
2022-11-30T07:44:31.804Z,101052.75
2022-11-30T07:47:19.417Z,101045.31
2022-11-30T07:50:07.362Z,101036.59
2022-11-30T07:52:54.873Z,101043.69
2022-11-30T07:55:43.182Z,101048.00
2022-11-30T07:58:31.596Z,101048.28
2022-11-30T08:01:21.782Z,101050.78
2022-11-30T08:04:09.508Z,101052.94
2022-11-30T08:06:57.147Z,101055.09
2022-11-30T08:09:45.393Z,101058.97
2022-11-30T08:12:32.914Z,101060.03
2022-11-30T08:15:25.135Z,101056.81
2022-11-30T08:18:16.559Z,101062.53
2022-11-30T08:21:05.458Z,101062.53
2022-11-30T08:23:54.017Z,101057.91
2022-11-30T08:26:41.581Z,101068.00
2022-11-30T08:29:30.150Z,101055.25
2022-11-30T08:32:17.868Z,101059.34
2022-11-30T08:35:05.657Z,101050.06
2022-11-30T08:37:53.163Z,101066.81
2022-11-30T08:40:40.598Z,101065.44
2022-11-30T08:43:28.354Z,101059.63
2022-11-30T08:46:49.261Z,101062.69
2022-11-30T08:49:25.280Z,101050.44
2022-11-30T08:55:20.428Z,101043.75
2022-11-30T08:58:08.010Z,101038.41
2022-11-30T09:00:55.519Z,101037.31
2022-11-30T09:03:43.914Z,101032.47
2022-11-30T09:06:31.363Z,101037.94
2022-11-30T09:09:18.790Z,101032.97
2022-11-30T09:12:07.080Z,101033.59
2022-11-30T09:14:58.224Z,101038.31
2022-11-30T09:17:46.187Z,101028.38
2022-11-30T09:20:34.229Z,101027.47
2022-11-30T09:23:21.731Z,101022.31
2022-11-30T09:26:11.546Z,101021.41
2022-11-30T09:28:59.064Z,101012.44
2022-11-30T09:31:46.605Z,101015.44
2022-11-30T09:34:34.153Z,101019.56
2022-11-30T09:37:22.440Z,101010.53
2022-11-30T09:40:10.876Z,101022.81
2022-11-30T09:43:05.255Z,101030.53
2022-11-30T09:45:56.820Z,101018.47
2022-11-30T09:49:04.340Z,101017.69
2022-11-30T09:51:54.511Z,101021.81
2022-11-30T09:54:43.445Z,101026.59
2022-11-30T09:57:34.799Z,101040.59
2022-11-30T10:00:23.590Z,101035.31
2022-11-30T10:03:11.617Z,101037.00
2022-11-30T10:06:18.382Z,101035.41
2022-11-30T10:09:08.590Z,101034.66
2022-11-30T10:12:02.895Z,101027.50
2022-11-30T10:15:01.705Z,101031.31
2022-11-30T10:17:54.166Z,101031.75
2022-11-30T10:20:56.281Z,101014.91
2022-11-30T10:23:59.004Z,101019.84
2022-11-30T10:26:53.353Z,101025.88
2022-11-30T10:29:42.361Z,101030.25
2022-11-30T10:32:35.981Z,101031.69
2022-11-30T10:35:35.142Z,101037.81
2022-11-30T10:38:25.310Z,101021.19
2022-11-30T10:41:41.957Z,101020.81
2022-11-30T10:44:34.612Z,101026.88
2022-11-30T10:47:25.735Z,101032.38
2022-11-30T10:50:17.530Z,101031.00
2022-11-30T10:53:04.980Z,101026.91
2022-11-30T10:55:58.983Z,101037.41
2022-11-30T10:58:49.611Z,101026.47
2022-11-30T11:01:39.488Z,101028.63
2022-11-30T11:04:28.194Z,101030.25
2022-11-30T11:07:15.966Z,101028.84
2022-11-30T11:10:03.564Z,101031.00
2022-11-30T11:12:52.604Z,101030.19
2022-11-30T11:15:40.458Z,101021.22
2022-11-30T11:18:30.273Z,101025.88
2022-11-30T11:21:21.707Z,101035.78
2022-11-30T11:24:10.923Z,101038.03
2022-11-30T11:26:58.536Z,101033.66
2022-11-30T11:29:46.702Z,101028.69
2022-11-30T11:32:34.917Z,101034.03
2022-11-30T11:35:32.762Z,101024.16
2022-11-30T11:38:20.246Z,101014.44
2022-11-30T11:41:21.891Z,101027.03
2022-11-30T11:44:09.344Z,101033.59
2022-11-30T11:46:56.932Z,101032.47
2022-11-30T11:49:44.832Z,101032.03
2022-11-30T11:52:32.524Z,101032.56
2022-11-30T11:55:21.418Z,101033.97
2022-11-30T11:58:12.842Z,101039.34
2022-11-30T12:01:31.710Z,101036.88
2022-11-30T12:04:12.292Z,101030.53
2022-11-30T12:07:02.593Z,101025.47
2022-11-30T12:09:59.508Z,101024.41
2022-11-30T12:12:51.982Z,101020.53
2022-11-30T12:15:46.920Z,101024.66
2022-11-30T12:18:40.080Z,101010.94
2022-11-30T12:21:27.538Z,101015.66
2022-11-30T12:24:24.169Z,101016.47
2022-11-30T12:27:18.972Z,101007.69
2022-11-30T12:30:10.246Z,101012.03
2022-11-30T12:33:03.771Z,101003.63
2022-11-30T12:36:09.759Z,100994.31
2022-11-30T12:39:30.776Z,100995.06
2022-11-30T12:42:36.788Z,100992.69
2022-11-30T12:45:34.936Z,100991.09
2022-11-30T12:48:22.365Z,100994.63
2022-11-30T12:51:30.263Z,100993.41
2022-11-30T12:54:43.783Z,101002.00
2022-11-30T12:57:31.682Z,101002.50
2022-11-30T13:00:22.759Z,101016.78
2022-11-30T13:03:29.025Z,101013.44
2022-11-30T13:06:23.587Z,101017.75
2022-11-30T13:09:16.279Z,101012.84
2022-11-30T13:12:17.610Z,101018.56
2022-11-30T13:15:11.064Z,101019.41
2022-11-30T13:18:03.295Z,101020.41
2022-11-30T13:21:04.876Z,101019.59
2022-11-30T13:24:05.203Z,101031.31
2022-11-30T13:26:56.159Z,101032.38
2022-11-30T13:29:54.331Z,101026.47
2022-11-30T13:32:57.757Z,101025.38
2022-11-30T13:35:55.333Z,101030.16
2022-11-30T13:38:42.870Z,101033.19
2022-11-30T13:41:30.382Z,101035.38
2022-11-30T13:44:38.243Z,101037.03
2022-11-30T13:47:26.693Z,101041.97
2022-11-30T13:50:25.890Z,101037.59
2022-11-30T13:53:26.464Z,101040.06
2022-11-30T13:56:13.882Z,101044.94
2022-11-30T13:59:19.803Z,101039.50
2022-11-30T14:05:36.386Z,101034.09
2022-11-30T14:08:23.949Z,101040.88
2022-11-30T14:11:17.788Z,101041.38
2022-11-30T14:14:23.832Z,101038.94
2022-11-30T14:17:19.140Z,101044.44
2022-11-30T14:20:16.205Z,101046.41
2022-11-30T14:23:26.698Z,101033.84
2022-11-30T14:26:15.146Z,101027.03
2022-11-30T14:29:04.977Z,101034.09
2022-11-30T14:32:10.922Z,101029.75
2022-11-30T14:35:27.595Z,101029.53
2022-11-30T14:38:29.728Z,101032.78
2022-11-30T14:41:27.304Z,101027.38
2022-11-30T14:44:14.959Z,101021.13
2022-11-30T14:47:15.705Z,101026.28
2022-11-30T14:50:06.039Z,101029.81
2022-11-30T14:53:00.224Z,101032.78
2022-11-30T14:56:00.705Z,101033.00
2022-11-30T14:58:52.303Z,101027.31
2022-11-30T15:01:40.816Z,101036.84
2022-11-30T15:04:29.847Z,101033.38
2022-11-30T15:07:17.372Z,101030.28
2022-11-30T15:10:07.172Z,101037.66
2022-11-30T15:12:55.072Z,101038.25
2022-11-30T15:15:55.835Z,101034.41
2022-11-30T15:18:43.334Z,101036.91
2022-11-30T15:21:32.239Z,101039.31
2022-11-30T15:24:20.260Z,101040.69
2022-11-30T15:27:11.193Z,101045.31
2022-11-30T15:30:00.967Z,101047.25
2022-11-30T15:32:52.549Z,101050.56
2022-11-30T15:36:13.591Z,101063.63
2022-11-30T15:38:53.417Z,101069.97
2022-11-30T15:41:40.960Z,101063.69
2022-11-30T15:44:37.673Z,101063.34
2022-11-30T15:47:32.683Z,101059.78
2022-11-30T15:50:22.980Z,101058.75
2022-11-30T15:53:30.577Z,101057.06
2022-11-30T15:56:25.571Z,101056.53
2022-11-30T15:59:23.858Z,101062.06
2022-11-30T16:02:30.238Z,101063.69
2022-11-30T16:05:19.809Z,101065.56
2022-11-30T16:08:15.285Z,101072.13
2022-11-30T16:11:08.031Z,101077.28
2022-11-30T16:13:57.908Z,101083.56
2022-11-30T16:16:45.924Z,101086.50
2022-11-30T16:19:33.522Z,101089.50
2022-11-30T16:22:20.967Z,101091.00
2022-11-30T16:25:19.237Z,101091.22
2022-11-30T16:28:08.420Z,101094.97
2022-11-30T16:31:00.182Z,101091.72
2022-11-30T16:33:49.677Z,101087.91
2022-11-30T16:36:39.552Z,101065.94
2022-11-30T16:39:30.667Z,101084.13
2022-11-30T16:42:18.124Z,101100.00
2022-11-30T16:45:06.071Z,101094.81
2022-11-30T16:47:53.752Z,101095.06
2022-11-30T16:50:41.719Z,101089.03
2022-11-30T16:53:29.208Z,101088.53
2022-11-30T16:56:16.804Z,101070.50
2022-11-30T16:59:04.420Z,101064.50
2022-11-30T17:01:53.560Z,101059.66
2022-11-30T17:04:41.202Z,101050.59
2022-11-30T17:07:34.689Z,101049.75
2022-11-30T17:10:25.937Z,101048.69
2022-11-30T17:13:14.830Z,101049.22
2022-11-30T17:16:04.622Z,101056.91
2022-11-30T17:18:53.315Z,101053.13
2022-11-30T17:21:42.484Z,101062.63
2022-11-30T17:24:29.984Z,101060.16
2022-11-30T17:27:21.816Z,101069.38
2022-11-30T17:30:14.021Z,101072.72
2022-11-30T17:33:01.464Z,101075.97
2022-11-30T17:35:51.736Z,101074.34
2022-11-30T17:38:39.533Z,101074.69
2022-11-30T17:41:27.136Z,101073.59
2022-11-30T17:44:14.756Z,101085.06
2022-11-30T17:47:02.228Z,101082.00
2022-11-30T17:49:50.121Z,101080.63
2022-11-30T17:52:37.748Z,101086.66
2022-11-30T17:55:25.192Z,101080.97
2022-11-30T17:58:12.726Z,101076.56
2022-11-30T18:01:00.308Z,101086.41
2022-11-30T18:03:48.407Z,101096.75
2022-11-30T18:06:36.103Z,101097.56
2022-11-30T18:09:24.559Z,101091.31
2022-11-30T18:12:13.060Z,101090.22
2022-11-30T18:15:00.562Z,101090.81
2022-11-30T18:17:48.183Z,101084.22
2022-11-30T18:20:35.759Z,101091.88
2022-11-30T18:23:23.285Z,101092.13
2022-11-30T18:26:12.337Z,101100.91
2022-11-30T18:29:03.537Z,101091.09
2022-11-30T18:31:51.628Z,101086.72
2022-11-30T18:34:39.177Z,101084.28
2022-11-30T18:37:26.791Z,101092.44
2022-11-30T18:40:14.261Z,101095.72
2022-11-30T18:43:01.860Z,101091.09
2022-11-30T18:45:49.296Z,101094.41
2022-11-30T18:48:37.570Z,101096.25
2022-11-30T18:51:27.371Z,101102.28
2022-11-30T18:54:14.903Z,101097.94
2022-11-30T18:57:03.032Z,101100.91
2022-11-30T18:59:53.823Z,101102.81
2022-11-30T19:02:41.653Z,101102.84
2022-11-30T19:05:32.182Z,101103.88
2022-11-30T19:08:19.694Z,101102.84
2022-11-30T19:11:08.083Z,101100.66
2022-11-30T19:13:56.378Z,101098.97
2022-11-30T19:16:44.201Z,101102.81
2022-11-30T19:19:34.566Z,101102.00
2022-11-30T19:22:27.795Z,101096.84
2022-11-30T19:25:24.073Z,101102.84
2022-11-30T19:28:22.738Z,101102.84
2022-11-30T19:31:14.881Z,101102.31
2022-11-30T19:34:09.107Z,101101.50
2022-11-30T19:37:02.218Z,101101.03
2022-11-30T19:39:52.514Z,101108.13
2022-11-30T19:42:42.235Z,101107.59
2022-11-30T19:45:29.726Z,101113.59
2022-11-30T19:48:20.317Z,101112.75
2022-11-30T19:51:16.304Z,101105.69
2022-11-30T19:54:05.270Z,101109.19
2022-11-30T19:56:55.946Z,101109.81
2022-11-30T19:59:43.504Z,101109.75
2022-11-30T20:02:31.057Z,101116.03
2022-11-30T20:05:18.554Z,101123.97
2022-11-30T20:08:06.380Z,101128.84
2022-11-30T20:10:53.952Z,101128.03
2022-11-30T20:13:42.175Z,101122.59
2022-11-30T20:16:29.826Z,101121.78
2022-11-30T20:19:17.539Z,101128.56
2022-11-30T20:22:06.605Z,101131.06
2022-11-30T20:24:54.114Z,101129.94
2022-11-30T20:39:29.873Z,101129.13
2022-11-30T20:42:17.437Z,101129.13
2022-11-30T20:45:05.151Z,101131.28
2022-11-30T20:47:52.613Z,101127.00
2022-11-30T20:50:40.202Z,101125.28
2022-11-30T20:53:27.669Z,101122.00
2022-11-30T20:56:15.542Z,101122.00
2022-11-30T20:59:04.169Z,101122.63
2022-11-30T21:01:51.768Z,101129.16
2022-11-30T21:04:39.330Z,101123.91
2022-11-30T21:07:26.811Z,101128.03
2022-11-30T21:10:15.149Z,101125.88
2022-11-30T21:13:02.619Z,101126.41
2022-11-30T21:15:50.308Z,101132.09
2022-11-30T21:18:38.746Z,101134.31
2022-11-30T21:21:27.951Z,101132.09
2022-11-30T21:24:18.338Z,101135.97
2022-11-30T21:27:05.891Z,101133.25
2022-11-30T21:29:53.317Z,101148.81
2022-11-30T21:32:40.905Z,101141.38
2022-11-30T21:35:28.865Z,101139.78
2022-11-30T21:38:16.347Z,101140.88
2022-11-30T21:41:04.239Z,101137.84
2022-11-30T21:43:52.071Z,101134.34
2022-11-30T21:46:39.549Z,101134.88
2022-11-30T21:49:27.205Z,101146.09
2022-11-30T21:52:14.745Z,101146.94
2022-11-30T21:55:02.261Z,101146.69
2022-11-30T21:57:53.730Z,101145.03
2022-11-30T22:00:42.281Z,101154.28
2022-11-30T22:03:30.155Z,101156.22
2022-11-30T22:06:18.758Z,101145.56
2022-11-30T22:09:10.534Z,101145.59
2022-11-30T22:11:58.100Z,101143.66
2022-11-30T22:14:45.654Z,101143.19
2022-11-30T22:17:33.152Z,101148.06
2022-11-30T22:20:20.677Z,101146.13
2022-11-30T22:23:08.115Z,101141.78
2022-11-30T22:26:06.890Z,101144.00
2022-11-30T22:28:55.978Z,101151.06
2022-11-30T22:31:44.957Z,101151.31
2022-11-30T22:34:32.550Z,101152.69
2022-11-30T22:37:20.060Z,101154.56
2022-11-30T22:40:08.008Z,101144.22
2022-11-30T22:42:55.646Z,101143.94
2022-11-30T22:45:43.067Z,101141.50
2022-11-30T22:48:31.195Z,101130.91
2022-11-30T22:51:20.301Z,101135.56
2022-11-30T22:54:07.880Z,101133.66
2022-11-30T22:56:55.410Z,101126.56
2022-11-30T22:59:42.946Z,101120.31
2022-11-30T23:02:30.647Z,101123.34
2022-11-30T23:05:18.219Z,101121.13
2022-11-30T23:08:05.820Z,101114.81
2022-11-30T23:10:57.031Z,101118.88
2022-11-30T23:13:45.005Z,101123.28
2022-11-30T23:16:32.574Z,101114.88
2022-11-30T23:19:20.097Z,101115.09
2022-11-30T23:22:07.673Z,101114.63
2022-11-30T23:24:55.167Z,101103.94
2022-11-30T23:27:42.635Z,101108.88
2022-11-30T23:30:30.065Z,101097.16
2022-11-30T23:33:17.562Z,101102.34
2022-11-30T23:36:08.201Z,101084.63
2022-11-30T23:38:57.523Z,101083.00
2022-11-30T23:41:45.023Z,101093.91
2022-11-30T23:44:32.507Z,101096.06
2022-11-30T23:47:20.042Z,101093.34
2022-11-30T23:50:08.114Z,101096.88
2022-11-30T23:52:55.583Z,101098.53
2022-11-30T23:55:43.009Z,101097.44
2022-11-30T23:58:31.172Z,101102.66
